Time;durP1;ratioP1;P1;durP2;ratioP2;P2;SDS_P1;SDS_P2;PMS_P1;PMS_P2;Temp;Humidity;BMP_temperature;BMP_pressure;BME280_temperature;BME280_humidity;BME280_pressure;Samples;Min_cycle;Max_cycle;Signal;HPM_P1;HPM_P2
2024/03/06 00:00:55;;;;;;;45.45;18.42;;;;;;;;;;5001360;28;20029;-69
2024/03/06 00:03:20;;;;;;;50.92;18.55;;;;;;;;;;4996018;28;20022;-70
2024/03/06 00:05:47;;;;;;;50.92;19.23;;;;;;;;;;5006919;28;20041;-70
2024/03/06 00:08:12;;;;;;;46.10;18.83;;;;;;;;;;5006621;28;20466;-70
2024/03/06 00:10:37;;;;;;;46.08;18.67;;;;;;;;;;5009420;28;20033;-70
2024/03/06 00:13:03;;;;;;;46.85;19.70;;;;;;;;;;5008079;28;20236;-70
2024/03/06 00:15:29;;;;;;;44.13;19.45;;;;;;;;;;5006399;28;20113;-70
2024/03/06 00:17:54;;;;;;;50.60;19.67;;;;;;;;;;5006189;28;20045;-70
2024/03/06 00:20:19;;;;;;;49.23;18.17;;;;;;;;;;5000369;28;20301;-70
2024/03/06 00:22:44;;;;;;;43.17;18.42;;;;;;;;;;5010879;28;20253;-70
2024/03/06 00:25:09;;;;;;;41.90;18.40;;;;;;;;;;5007862;28;20101;-71
2024/03/06 00:27:35;;;;;;;54.45;20.20;;;;;;;;;;5006432;28;20052;-70
2024/03/06 00:30:00;;;;;;;54.73;20.40;;;;;;;;;;5009988;28;20041;-70
2024/03/06 00:32:25;;;;;;;49.70;19.85;;;;;;;;;;5009090;28;20257;-70
2024/03/06 00:34:50;;;;;;;50.20;20.87;;;;;;;;;;5006996;28;20137;-70
2024/03/06 00:37:15;;;;;;;56.67;22.15;;;;;;;;;;5007807;28;20626;-70
2024/03/06 00:39:40;;;;;;;44.13;20.47;;;;;;;;;;5000721;28;20025;-70
2024/03/06 00:42:08;;;;;;;48.43;20.07;;;;;;;;;;5005411;28;20261;-70
2024/03/06 00:44:34;;;;;;;46.83;19.48;;;;;;;;;;5000546;28;20257;-70
2024/03/06 00:46:59;;;;;;;50.57;19.93;;;;;;;;;;4996356;28;20026;-70
2024/03/06 00:49:24;;;;;;;55.72;21.67;;;;;;;;;;5003576;28;20292;-70
2024/03/06 00:51:49;;;;;;;50.15;20.33;;;;;;;;;;5009763;28;20100;-70
2024/03/06 00:54:14;;;;;;;51.97;20.07;;;;;;;;;;5003482;28;20049;-70
2024/03/06 00:56:39;;;;;;;57.95;20.77;;;;;;;;;;4995706;28;20332;-70
2024/03/06 00:59:05;;;;;;;50.15;19.40;;;;;;;;;;5009937;28;20021;-70
2024/03/06 01:01:30;;;;;;;49.50;20.92;;;;;;;;;;5002605;28;20029;-71
2024/03/06 01:03:55;;;;;;;51.63;21.38;;;;;;;;;;4996510;28;20026;-70
2024/03/06 01:06:20;;;;;;;53.50;21.37;;;;;;;;;;5002655;28;20022;-70
2024/03/06 01:08:46;;;;;;;57.67;20.33;;;;;;;;;;4999901;28;20693;-71
2024/03/06 01:11:14;;;;;;;48.50;20.90;;;;;;;;;;5009053;28;20388;-70
2024/03/06 01:13:39;;;;;;;46.55;19.33;;;;;;;;;;5002068;28;20052;-70
2024/03/06 01:16:05;;;;;;;50.53;20.23;;;;;;;;;;5010284;28;20029;-71
2024/03/06 01:18:30;;;;;;;49.25;19.42;;;;;;;;;;5009574;28;20268;-70
2024/03/06 01:20:56;;;;;;;50.47;19.63;;;;;;;;;;4994276;28;20072;-70
2024/03/06 01:23:21;;;;;;;47.95;21.45;;;;;;;;;;4993159;28;20032;-70
2024/03/06 01:25:46;;;;;;;53.63;20.55;;;;;;;;;;5006684;28;20037;-70
2024/03/06 01:28:11;;;;;;;49.83;19.73;;;;;;;;;;4997038;28;20100;-70
2024/03/06 01:30:36;;;;;;;52.63;20.77;;;;;;;;;;5000107;28;20273;-70
2024/03/06 01:33:01;;;;;;;46.40;19.07;;;;;;;;;;5003704;28;20462;-70
2024/03/06 01:35:27;;;;;;;48.08;20.35;;;;;;;;;;5007636;28;20732;-71
2024/03/06 01:37:52;;;;;;;51.67;19.27;;;;;;;;;;5003432;28;20477;-70
2024/03/06 01:40:17;;;;;;;61.13;22.47;;;;;;;;;;5004215;28;20277;-70
2024/03/06 01:42:42;;;;;;;49.27;19.87;;;;;;;;;;4998622;28;20691;-70
2024/03/06 01:45:08;;;;;;;54.03;20.35;;;;;;;;;;5000105;28;20263;-70
2024/03/06 01:47:33;;;;;;;56.80;21.02;;;;;;;;;;5002812;28;20058;-70
2024/03/06 01:49:59;;;;;;;52.35;20.95;;;;;;;;;;4997910;28;20030;-70
2024/03/06 01:52:24;;;;;;;52.05;20.00;;;;;;;;;;5005906;28;20080;-70
2024/03/06 01:54:50;;;;;;;48.90;19.83;;;;;;;;;;5009014;28;20049;-70
2024/03/06 01:57:15;;;;;;;56.40;21.85;;;;;;;;;;5002186;28;20026;-70
2024/03/06 01:59:41;;;;;;;51.03;19.13;;;;;;;;;;4996423;28;20075;-70
2024/03/06 02:02:08;;;;;;;49.85;20.83;;;;;;;;;;4999224;28;20032;-70
2024/03/06 02:04:33;;;;;;;49.10;19.92;;;;;;;;;;4991140;28;20060;-70
2024/03/06 02:06:58;;;;;;;54.28;19.67;;;;;;;;;;4998914;28;20026;-70
2024/03/06 02:09:24;;;;;;;53.95;19.80;;;;;;;;;;5004274;28;20033;-70
2024/03/06 02:11:50;;;;;;;45.10;18.42;;;;;;;;;;4993008;28;20022;-70
2024/03/06 02:14:15;;;;;;;50.33;17.95;;;;;;;;;;4999663;28;20021;-70
2024/03/06 02:16:40;;;;;;;50.70;20.27;;;;;;;;;;5000480;28;20029;-70
2024/03/06 02:19:06;;;;;;;50.15;19.83;;;;;;;;;;5004127;28;20037;-70
2024/03/06 02:21:31;;;;;;;47.10;19.70;;;;;;;;;;4994288;28;20425;-70
2024/03/06 02:23:56;;;;;;;52.90;19.27;;;;;;;;;;5006894;28;20026;-70
2024/03/06 02:26:22;;;;;;;48.70;19.60;;;;;;;;;;5007120;28;20123;-70
2024/03/06 02:28:49;;;;;;;49.05;18.42;;;;;;;;;;4992731;28;20035;-70
2024/03/06 02:31:14;;;;;;;48.45;18.98;;;;;;;;;;5004833;28;20021;-70
2024/03/06 02:33:39;;;;;;;54.38;20.20;;;;;;;;;;4993551;28;20389;-71
2024/03/06 02:36:05;;;;;;;54.00;20.40;;;;;;;;;;5001899;28;20017;-70
2024/03/06 02:38:30;;;;;;;57.28;20.48;;;;;;;;;;4994970;28;20276;-70
2024/03/06 02:40:55;;;;;;;54.53;21.02;;;;;;;;;;5001918;28;20494;-70
2024/03/06 02:43:21;;;;;;;42.00;18.63;;;;;;;;;;5003406;28;20044;-70
2024/03/06 02:45:46;;;;;;;53.55;20.60;;;;;;;;;;5000966;28;20281;-70
2024/03/06 02:48:11;;;;;;;47.37;19.43;;;;;;;;;;5001062;28;20068;-70
2024/03/06 02:50:36;;;;;;;50.38;19.45;;;;;;;;;;4998075;28;20409;-70
2024/03/06 02:53:01;;;;;;;52.03;18.38;;;;;;;;;;4998835;28;20025;-70
2024/03/06 02:55:27;;;;;;;47.42;17.92;;;;;;;;;;4992557;28;20010;-70
2024/03/06 02:57:52;;;;;;;51.87;18.03;;;;;;;;;;5003690;28;20015;-70
2024/03/06 03:00:18;;;;;;;54.53;19.53;;;;;;;;;;5006679;28;20283;-70
2024/03/06 03:02:43;;;;;;;45.45;18.23;;;;;;;;;;5007198;28;20344;-70
2024/03/06 03:05:08;;;;;;;43.35;17.13;;;;;;;;;;5002657;28;20109;-70
2024/03/06 03:07:34;;;;;;;48.58;19.70;;;;;;;;;;4995978;28;20048;-70
2024/03/06 03:09:59;;;;;;;49.08;20.30;;;;;;;;;;5004509;28;20474;-70
2024/03/06 03:12:24;;;;;;;47.88;18.85;;;;;;;;;;5006442;28;20037;-70
2024/03/06 03:14:49;;;;;;;50.83;18.87;;;;;;;;;;5007373;28;20022;-70
2024/03/06 03:17:15;;;;;;;51.45;19.35;;;;;;;;;;5007773;28;20273;-70
2024/03/06 03:19:40;;;;;;;52.75;19.20;;;;;;;;;;4998306;28;20060;-70
2024/03/06 03:22:05;;;;;;;54.75;21.77;;;;;;;;;;5003615;28;20022;-70
2024/03/06 03:24:31;;;;;;;54.05;20.23;;;;;;;;;;5009449;28;20112;-70
2024/03/06 03:26:56;;;;;;;56.63;21.55;;;;;;;;;;5009887;28;20504;-70
2024/03/06 03:29:21;;;;;;;53.47;20.67;;;;;;;;;;5001542;28;20378;-70
2024/03/06 03:31:46;;;;;;;59.00;22.07;;;;;;;;;;5002902;28;20041;-70
2024/03/06 03:34:11;;;;;;;53.65;19.95;;;;;;;;;;5009153;28;20343;-70
2024/03/06 03:36:41;;;;;;;45.92;18.85;;;;;;;;;;5000967;28;20029;-70
2024/03/06 03:39:08;;;;;;;56.35;20.17;;;;;;;;;;5006889;28;20013;-70
2024/03/06 03:41:33;;;;;;;58.28;20.65;;;;;;;;;;5003256;28;20022;-70
2024/03/06 03:43:59;;;;;;;51.03;20.55;;;;;;;;;;5012057;28;20022;-70
2024/03/06 03:46:24;;;;;;;55.17;21.48;;;;;;;;;;5012019;28;20026;-70
2024/03/06 03:48:49;;;;;;;53.10;20.73;;;;;;;;;;5011768;28;20469;-70
2024/03/06 03:51:15;;;;;;;56.55;19.80;;;;;;;;;;5009267;28;20288;-70
2024/03/06 03:59:46;;;;;;;57.60;22.48;;;;;;;;;;5007376;28;20060;-70
2024/03/06 04:02:11;;;;;;;51.80;19.55;;;;;;;;;;5005942;28;20057;-70
2024/03/06 04:04:36;;;;;;;48.47;19.63;;;;;;;;;;5011106;28;20042;-70
2024/03/06 04:07:01;;;;;;;55.15;20.35;;;;;;;;;;5007822;28;20283;-70
2024/03/06 04:09:29;;;;;;;53.20;20.83;;;;;;;;;;4994661;28;20080;-70
2024/03/06 04:11:55;;;;;;;54.10;22.17;;;;;;;;;;5004136;28;20018;-70
2024/03/06 04:14:20;;;;;;;56.37;22.07;;;;;;;;;;5009435;28;20388;-71
2024/03/06 04:16:45;;;;;;;59.40;23.05;;;;;;;;;;5008573;28;20280;-70
2024/03/06 04:19:11;;;;;;;55.13;20.75;;;;;;;;;;5009954;28;20079;-70
2024/03/06 04:21:40;;;;;;;48.38;20.83;;;;;;;;;;5006126;28;20029;-70
2024/03/06 04:24:05;;;;;;;55.25;19.33;;;;;;;;;;5010453;28;20022;-70
2024/03/06 04:26:30;;;;;;;58.15;20.77;;;;;;;;;;5003723;28;20022;-70
2024/03/06 04:28:55;;;;;;;52.20;20.95;;;;;;;;;;5005215;28;20025;-70
2024/03/06 04:31:21;;;;;;;55.00;21.50;;;;;;;;;;4994435;28;20018;-71
2024/03/06 04:33:46;;;;;;;51.57;19.90;;;;;;;;;;5006803;28;20101;-70
2024/03/06 04:36:12;;;;;;;53.72;20.65;;;;;;;;;;4998915;28;20275;-70
2024/03/06 04:38:37;;;;;;;55.78;19.80;;;;;;;;;;5003268;28;20030;-70
2024/03/06 04:41:04;;;;;;;51.10;20.90;;;;;;;;;;5000376;28;20523;-70
2024/03/06 04:43:30;;;;;;;48.70;20.40;;;;;;;;;;5001646;28;20041;-70
2024/03/06 04:45:55;;;;;;;55.13;21.77;;;;;;;;;;5003302;28;20046;-70
2024/03/06 04:48:20;;;;;;;50.87;21.23;;;;;;;;;;5002720;28;20053;-70
2024/03/06 04:50:45;;;;;;;51.95;19.63;;;;;;;;;;4997972;28;20795;-70
2024/03/06 04:53:10;;;;;;;55.05;20.27;;;;;;;;;;5005067;28;20393;-70
2024/03/06 04:55:36;;;;;;;51.15;21.67;;;;;;;;;;5004282;28;20101;-70
2024/03/06 04:58:02;;;;;;;50.78;21.45;;;;;;;;;;5004631;28;20464;-70
2024/03/06 05:00:29;;;;;;;52.47;20.85;;;;;;;;;;4995698;28;20024;-70
2024/03/06 05:02:55;;;;;;;50.30;21.10;;;;;;;;;;5009909;28;20097;-70
2024/03/06 05:05:21;;;;;;;59.58;22.55;;;;;;;;;;5006544;28;20028;-70
2024/03/06 05:07:46;;;;;;;54.40;22.63;;;;;;;;;;5004853;28;20038;-71
2024/03/06 05:10:11;;;;;;;60.28;23.67;;;;;;;;;;5000465;28;20022;-70
2024/03/06 05:12:36;;;;;;;51.95;21.80;;;;;;;;;;5003023;28;20021;-70
2024/03/06 05:15:02;;;;;;;57.30;22.63;;;;;;;;;;5000461;28;20025;-71
2024/03/06 05:17:27;;;;;;;56.25;22.50;;;;;;;;;;5006108;28;20025;-70
2024/03/06 05:19:54;;;;;;;49.57;21.70;;;;;;;;;;4998655;28;20029;-70
2024/03/06 05:22:19;;;;;;;54.35;21.48;;;;;;;;;;5007682;28;20271;-70
2024/03/06 05:24:44;;;;;;;54.17;21.95;;;;;;;;;;5006360;28;20022;-70
2024/03/06 05:27:13;;;;;;;46.47;19.60;;;;;;;;;;5008905;28;20317;-70
2024/03/06 05:29:38;;;;;;;51.72;20.25;;;;;;;;;;5001564;28;20258;-70
2024/03/06 05:32:03;;;;;;;48.83;20.05;;;;;;;;;;5001079;28;20049;-70
2024/03/06 05:34:29;;;;;;;45.67;19.77;;;;;;;;;;5009186;28;20018;-71
2024/03/06 05:36:54;;;;;;;49.50;19.73;;;;;;;;;;5004954;28;20025;-70
2024/03/06 05:39:19;;;;;;;44.47;19.48;;;;;;;;;;4998329;28;20102;-70
2024/03/06 05:41:45;;;;;;;50.15;20.08;;;;;;;;;;4996638;28;20406;-70
2024/03/06 05:44:10;;;;;;;54.75;21.55;;;;;;;;;;5001113;28;20030;-70
2024/03/06 05:46:35;;;;;;;56.05;21.48;;;;;;;;;;5001021;28;20282;-70
2024/03/06 05:49:01;;;;;;;55.47;21.52;;;;;;;;;;5001996;28;20026;-70
2024/03/06 05:51:27;;;;;;;50.70;18.55;;;;;;;;;;5002019;28;20415;-70
2024/03/06 05:53:52;;;;;;;54.13;20.05;;;;;;;;;;5005638;28;20104;-70
2024/03/06 05:56:18;;;;;;;62.78;20.13;;;;;;;;;;5008887;28;20018;-70
2024/03/06 05:58:46;;;;;;;51.78;19.05;;;;;;;;;;5002428;28;20473;-70
2024/03/06 06:01:11;;;;;;;47.78;18.40;;;;;;;;;;4995096;28;20017;-70
2024/03/06 06:03:36;;;;;;;42.05;16.92;;;;;;;;;;4993165;28;20025;-70
2024/03/06 06:06:02;;;;;;;49.20;19.00;;;;;;;;;;4997049;28;20041;-70
2024/03/06 06:08:28;;;;;;;48.25;18.27;;;;;;;;;;5002656;28;20300;-70
2024/03/06 06:10:54;;;;;;;44.40;18.70;;;;;;;;;;4998670;28;20026;-70
2024/03/06 06:13:19;;;;;;;48.40;18.05;;;;;;;;;;5001551;28;20018;-70
2024/03/06 06:15:45;;;;;;;45.20;19.17;;;;;;;;;;5003646;28;20404;-70
2024/03/06 06:18:10;;;;;;;43.80;18.42;;;;;;;;;;5001804;28;20018;-70
2024/03/06 06:20:35;;;;;;;47.03;18.95;;;;;;;;;;4996116;28;20076;-70
2024/03/06 06:23:00;;;;;;;51.40;18.48;;;;;;;;;;5007442;28;20026;-70
2024/03/06 06:25:26;;;;;;;51.03;20.58;;;;;;;;;;5003146;28;20018;-70
2024/03/06 06:27:51;;;;;;;45.53;18.48;;;;;;;;;;4998542;28;20392;-70
2024/03/06 06:30:16;;;;;;;44.25;17.85;;;;;;;;;;5000528;28;20260;-70
2024/03/06 06:32:42;;;;;;;41.55;17.85;;;;;;;;;;4999310;28;20308;-70
2024/03/06 06:35:09;;;;;;;41.13;17.80;;;;;;;;;;4999952;28;20026;-70
2024/03/06 06:37:34;;;;;;;42.83;18.10;;;;;;;;;;4994159;28;20060;-70
2024/03/06 06:39:59;;;;;;;45.07;18.03;;;;;;;;;;4996732;28;20473;-70
2024/03/06 06:42:24;;;;;;;48.15;18.70;;;;;;;;;;5000886;28;20328;-70
2024/03/06 06:44:49;;;;;;;41.23;17.70;;;;;;;;;;5003950;28;20064;-70
2024/03/06 06:47:15;;;;;;;39.20;16.33;;;;;;;;;;5003990;28;20984;-70
2024/03/06 06:49:40;;;;;;;50.38;18.23;;;;;;;;;;5000571;28;20257;-71
2024/03/06 06:52:05;;;;;;;44.67;17.63;;;;;;;;;;5006177;28;20014;-71
2024/03/06 06:54:31;;;;;;;45.33;18.60;;;;;;;;;;5007155;28;20022;-70
2024/03/06 06:56:56;;;;;;;46.35;18.05;;;;;;;;;;5008111;28;20590;-70
2024/03/06 06:59:23;;;;;;;45.90;17.97;;;;;;;;;;5006232;28;20022;-71
2024/03/06 07:01:48;;;;;;;48.67;19.88;;;;;;;;;;5004953;28;20264;-71
2024/03/06 07:04:16;;;;;;;49.50;20.65;;;;;;;;;;5001206;28;20591;-70
2024/03/06 07:06:41;;;;;;;45.55;19.70;;;;;;;;;;5010013;28;20029;-71
2024/03/06 07:09:09;;;;;;;40.03;18.03;;;;;;;;;;5003864;28;20426;-72
2024/03/06 07:11:35;;;;;;;42.00;18.90;;;;;;;;;;5005552;28;20264;-71
2024/03/06 07:14:00;;;;;;;46.72;19.95;;;;;;;;;;5010550;28;20026;-71
2024/03/06 07:16:25;;;;;;;47.50;18.30;;;;;;;;;;5002896;28;20031;-71
2024/03/06 07:18:50;;;;;;;50.13;18.83;;;;;;;;;;5007214;28;20017;-71
2024/03/06 07:21:15;;;;;;;40.43;15.97;;;;;;;;;;5006488;28;20791;-71
2024/03/06 07:23:41;;;;;;;36.77;17.10;;;;;;;;;;5014901;28;20307;-71
2024/03/06 07:26:06;;;;;;;41.93;17.57;;;;;;;;;;5004117;28;20281;-68
2024/03/06 07:28:31;;;;;;;40.13;15.85;;;;;;;;;;5012423;28;20265;-71
2024/03/06 07:30:56;;;;;;;36.72;14.85;;;;;;;;;;5009233;28;20014;-71
2024/03/06 07:33:21;;;;;;;37.80;14.67;;;;;;;;;;4995429;28;20027;-71
2024/03/06 07:35:47;;;;;;;32.47;14.00;;;;;;;;;;5009547;28;20253;-72
2024/03/06 07:38:12;;;;;;;36.80;13.60;;;;;;;;;;5012519;28;20767;-69
2024/03/06 07:40:37;;;;;;;28.77;12.95;;;;;;;;;;5007109;28;20022;-69
2024/03/06 07:43:04;;;;;;;31.42;13.20;;;;;;;;;;5000927;28;20030;-68
2024/03/06 07:45:29;;;;;;;27.92;13.27;;;;;;;;;;5010641;28;20026;-69
2024/03/06 07:47:54;;;;;;;26.48;11.05;;;;;;;;;;5012115;28;20045;-68
2024/03/06 07:50:19;;;;;;;30.20;13.57;;;;;;;;;;5009435;28;20033;-69
2024/03/06 07:52:46;;;;;;;23.02;10.38;;;;;;;;;;5004413;28;20324;-68
2024/03/06 07:55:11;;;;;;;32.75;14.00;;;;;;;;;;5011975;28;20205;-68
2024/03/06 07:57:36;;;;;;;39.17;14.17;;;;;;;;;;5011741;28;20014;-68
2024/03/06 08:00:07;;;;;;;38.63;15.97;;;;;;;;;;5010161;28;20304;-70
2024/03/06 08:02:32;;;;;;;19.48;8.02;;;;;;;;;;5002840;28;20772;-70
2024/03/06 08:04:58;;;;;;;30.73;13.27;;;;;;;;;;5008411;28;20034;-71
2024/03/06 08:07:23;;;;;;;24.63;9.47;;;;;;;;;;5011684;28;20316;-70
2024/03/06 08:09:48;;;;;;;28.63;12.40;;;;;;;;;;5010841;28;20268;-70
2024/03/06 08:12:13;;;;;;;35.90;15.15;;;;;;;;;;5001093;28;20019;-70
2024/03/06 08:14:39;;;;;;;27.23;12.00;;;;;;;;;;5009027;28;20026;-70
2024/03/06 08:17:04;;;;;;;19.65;7.18;;;;;;;;;;5011287;28;20724;-70
2024/03/06 08:19:29;;;;;;;35.38;15.00;;;;;;;;;;5007291;28;20481;-70
2024/03/06 08:21:54;;;;;;;43.00;16.15;;;;;;;;;;5005577;28;20026;-70
2024/03/06 08:24:20;;;;;;;39.17;17.20;;;;;;;;;;5011840;28;20021;-70
2024/03/06 08:26:45;;;;;;;50.00;19.97;;;;;;;;;;5010893;28;20950;-70
2024/03/06 08:29:10;;;;;;;58.22;22.67;;;;;;;;;;5010026;28;20289;-70
2024/03/06 08:31:35;;;;;;;49.92;18.05;;;;;;;;;;4995986;28;20027;-70
2024/03/06 08:34:00;;;;;;;58.37;22.23;;;;;;;;;;5003819;28;20650;-70
2024/03/06 08:36:26;;;;;;;54.55;22.35;;;;;;;;;;5011210;28;20269;-71
2024/03/06 08:38:51;;;;;;;58.13;20.87;;;;;;;;;;5010451;28;20055;-70
2024/03/06 08:41:16;;;;;;;40.17;15.57;;;;;;;;;;5000410;28;20319;-70
2024/03/06 08:43:41;;;;;;;46.88;20.08;;;;;;;;;;5002214;28;20026;-70
2024/03/06 08:46:07;;;;;;;57.28;22.40;;;;;;;;;;5007409;28;20022;-69
2024/03/06 08:48:32;;;;;;;54.75;22.08;;;;;;;;;;5008790;28;20042;-70
2024/03/06 08:50:57;;;;;;;68.72;24.05;;;;;;;;;;4998008;28;20018;-70
2024/03/06 08:53:22;;;;;;;73.73;27.43;;;;;;;;;;5010253;28;20025;-70
2024/03/06 08:55:48;;;;;;;63.20;23.00;;;;;;;;;;5010464;28;20292;-70
2024/03/06 08:58:14;;;;;;;75.22;26.67;;;;;;;;;;5010933;28;20249;-70
2024/03/06 09:00:39;;;;;;;40.58;15.65;;;;;;;;;;5002045;28;20017;-70
2024/03/06 09:03:05;;;;;;;61.35;21.67;;;;;;;;;;5004988;28;20022;-70
2024/03/06 09:05:30;;;;;;;40.13;17.17;;;;;;;;;;5004427;28;20446;-70
2024/03/06 09:07:57;;;;;;;54.13;20.92;;;;;;;;;;5010568;28;20041;-70
2024/03/06 09:10:22;;;;;;;48.13;18.38;;;;;;;;;;5001675;28;20019;-70
2024/03/06 09:12:47;;;;;;;58.07;21.73;;;;;;;;;;5006583;28;20401;-70
2024/03/06 09:15:17;;;;;;;51.28;19.23;;;;;;;;;;5004228;28;20268;-70
2024/03/06 09:17:42;;;;;;;58.83;21.52;;;;;;;;;;5004307;28;20481;-71
2024/03/06 09:20:10;;;;;;;57.28;23.85;;;;;;;;;;5001881;28;20030;-70
2024/03/06 09:22:36;;;;;;;61.38;22.90;;;;;;;;;;5002326;28;20105;-70
2024/03/06 09:25:02;;;;;;;63.25;22.85;;;;;;;;;;5010300;28;20109;-70
2024/03/06 09:27:27;;;;;;;49.97;21.33;;;;;;;;;;5004053;28;20459;-71
2024/03/06 09:29:52;;;;;;;58.57;21.90;;;;;;;;;;5001373;28;20037;-70
2024/03/06 09:32:19;;;;;;;54.50;20.23;;;;;;;;;;5005816;28;20265;-71
2024/03/06 09:34:44;;;;;;;47.63;19.85;;;;;;;;;;5010120;28;20253;-70
2024/03/06 09:37:09;;;;;;;53.80;22.25;;;;;;;;;;5008767;28;20370;-70
2024/03/06 09:39:35;;;;;;;40.80;16.42;;;;;;;;;;4998811;28;20040;-70
2024/03/06 09:42:01;;;;;;;53.15;21.83;;;;;;;;;;5002111;28;20018;-71
2024/03/06 09:44:26;;;;;;;61.90;23.33;;;;;;;;;;5010133;28;20022;-70
2024/03/06 09:46:52;;;;;;;56.47;24.10;;;;;;;;;;5009463;28;20045;-71
2024/03/06 09:49:18;;;;;;;61.33;25.70;;;;;;;;;;5005710;28;20416;-70
2024/03/06 09:51:45;;;;;;;66.80;26.67;;;;;;;;;;5004562;28;20026;-70
2024/03/06 09:54:11;;;;;;;56.30;25.48;;;;;;;;;;5010205;28;20690;-70
2024/03/06 09:56:36;;;;;;;51.00;22.20;;;;;;;;;;5009658;28;20061;-70
2024/03/06 09:59:01;;;;;;;57.60;24.23;;;;;;;;;;5006256;28;20093;-71
2024/03/06 10:01:27;;;;;;;54.65;24.65;;;;;;;;;;5004549;28;20343;-70
2024/03/06 10:03:53;;;;;;;63.63;25.48;;;;;;;;;;4999258;28;20469;-70
2024/03/06 10:06:18;;;;;;;58.92;24.55;;;;;;;;;;5009435;28;20026;-70
2024/03/06 10:08:43;;;;;;;57.93;25.67;;;;;;;;;;5005681;28;20014;-72
2024/03/06 10:11:09;;;;;;;58.63;25.25;;;;;;;;;;5001137;28;20752;-70
2024/03/06 10:13:35;;;;;;;61.42;23.90;;;;;;;;;;5007295;28;20021;-70
2024/03/06 10:16:04;;;;;;;60.67;25.60;;;;;;;;;;5009397;28;20018;-71
2024/03/06 10:18:30;;;;;;;60.97;25.10;;;;;;;;;;5006274;28;20276;-70
2024/03/06 10:20:55;;;;;;;60.75;26.70;;;;;;;;;;4997951;28;20014;-70
2024/03/06 10:23:21;;;;;;;54.53;23.70;;;;;;;;;;5004288;28;20090;-70
2024/03/06 10:25:49;;;;;;;58.40;26.50;;;;;;;;;;5005783;28;20489;-70
2024/03/06 10:28:16;;;;;;;57.65;25.38;;;;;;;;;;5006925;28;20029;-70
2024/03/06 10:30:41;;;;;;;65.13;24.83;;;;;;;;;;5002538;28;20022;-71
2024/03/06 10:33:07;;;;;;;57.40;24.65;;;;;;;;;;5006878;28;20037;-71
2024/03/06 10:35:33;;;;;;;58.00;24.17;;;;;;;;;;5009081;28;20017;-70
2024/03/06 10:38:00;;;;;;;58.35;25.83;;;;;;;;;;5008442;28;20026;-71
2024/03/06 10:40:29;;;;;;;50.95;21.98;;;;;;;;;;4995314;28;20473;-71
2024/03/06 10:42:54;;;;;;;53.17;23.05;;;;;;;;;;5007214;28;20048;-70
2024/03/06 10:45:20;;;;;;;54.00;22.77;;;;;;;;;;5009152;28;20476;-71
2024/03/06 10:47:49;;;;;;;51.05;23.17;;;;;;;;;;5007557;28;20083;-70
2024/03/06 10:50:14;;;;;;;57.85;24.67;;;;;;;;;;4993643;28;20022;-71
2024/03/06 10:52:40;;;;;;;27.98;10.93;;;;;;;;;;5009160;28;20175;-70
2024/03/06 10:55:05;;;;;;;51.78;21.67;;;;;;;;;;5008910;28;20029;-71
2024/03/06 10:57:32;;;;;;;54.22;22.77;;;;;;;;;;5009160;28;20037;-70
2024/03/06 10:59:59;;;;;;;44.95;21.48;;;;;;;;;;5002634;28;20045;-72
2024/03/06 11:02:24;;;;;;;43.17;21.85;;;;;;;;;;4997450;28;20044;-70
2024/03/06 11:04:50;;;;;;;45.13;20.33;;;;;;;;;;5008896;28;20476;-70
2024/03/06 11:07:16;;;;;;;41.22;17.45;;;;;;;;;;5008972;28;20032;-71
2024/03/06 11:09:41;;;;;;;39.72;18.13;;;;;;;;;;5004736;28;20019;-70
2024/03/06 11:12:07;;;;;;;38.78;19.23;;;;;;;;;;5006854;28;20076;-70
2024/03/06 11:14:32;;;;;;;39.03;18.40;;;;;;;;;;5008375;28;20024;-70
2024/03/06 11:17:05;;;;;;;35.35;17.60;;;;;;;;;;5008486;28;20030;-71
2024/03/06 11:19:31;;;;;;;36.50;18.65;;;;;;;;;;5000989;28;20105;-70
2024/03/06 11:21:56;;;;;;;41.17;18.40;;;;;;;;;;4996680;28;20110;-71
2024/03/06 11:24:33;;;;;;;33.88;17.20;;;;;;;;;;5009151;28;20029;-70
2024/03/06 11:27:02;;;;;;;38.05;18.45;;;;;;;;;;5001188;28;20026;-70
2024/03/06 11:29:28;;;;;;;37.85;17.40;;;;;;;;;;4998973;28;20053;-70
2024/03/06 11:32:07;;;;;;;37.03;17.55;;;;;;;;;;5001466;28;20042;-70
2024/03/06 11:34:33;;;;;;;35.92;16.55;;;;;;;;;;5005449;28;20053;-70
2024/03/06 11:36:58;;;;;;;33.47;14.80;;;;;;;;;;5012003;28;20699;-70
2024/03/06 11:39:24;;;;;;;34.15;16.58;;;;;;;;;;5004919;28;20101;-70
2024/03/06 11:41:50;;;;;;;35.80;18.13;;;;;;;;;;5005846;28;20432;-70
2024/03/06 11:44:16;;;;;;;41.47;20.08;;;;;;;;;;5010618;28;20105;-71
2024/03/06 11:46:45;;;;;;;38.97;17.42;;;;;;;;;;5011936;28;20481;-70
2024/03/06 11:49:25;;;;;;;35.25;16.65;;;;;;;;;;5006359;28;20064;-70
2024/03/06 11:51:50;;;;;;;31.13;15.07;;;;;;;;;;5003945;28;20033;-71
2024/03/06 11:54:17;;;;;;;34.10;17.27;;;;;;;;;;5012317;28;20026;-70
2024/03/06 11:56:46;;;;;;;31.38;15.80;;;;;;;;;;5011570;28;20092;-72
2024/03/06 11:59:12;;;;;;;29.98;15.43;;;;;;;;;;5007141;28;20084;-70
2024/03/06 12:01:37;;;;;;;27.77;15.27;;;;;;;;;;4996519;28;20023;-70
2024/03/06 12:04:02;;;;;;;35.10;15.68;;;;;;;;;;5007082;28;20686;-70
2024/03/06 12:06:28;;;;;;;28.65;14.27;;;;;;;;;;5006448;28;20022;-70
2024/03/06 12:08:53;;;;;;;28.20;12.85;;;;;;;;;;5010455;28;20049;-71
2024/03/06 12:11:20;;;;;;;29.20;13.75;;;;;;;;;;5009778;28;20021;-70
2024/03/06 12:13:45;;;;;;;24.75;12.60;;;;;;;;;;5012072;28;20424;-70
2024/03/06 12:16:11;;;;;;;29.13;15.33;;;;;;;;;;5011511;28;20028;-70
2024/03/06 12:18:36;;;;;;;27.87;13.33;;;;;;;;;;5005527;28;20021;-70
2024/03/06 12:21:02;;;;;;;27.38;14.75;;;;;;;;;;5007553;28;20597;-71
2024/03/06 12:23:28;;;;;;;23.52;12.48;;;;;;;;;;5011691;28;20013;-70
2024/03/06 12:26:02;;;;;;;21.25;10.35;;;;;;;;;;5009650;28;20029;-70
2024/03/06 12:28:27;;;;;;;19.25;9.93;;;;;;;;;;5009790;28;20040;-70
2024/03/06 12:30:53;;;;;;;20.43;10.57;;;;;;;;;;5002128;28;20021;-70
2024/03/06 12:33:19;;;;;;;21.90;10.97;;;;;;;;;;5004246;28;20584;-70
2024/03/06 12:35:44;;;;;;;19.35;10.15;;;;;;;;;;5005864;28;20297;-71
2024/03/06 12:38:13;;;;;;;19.63;10.30;;;;;;;;;;5010533;28;20107;-70
2024/03/06 12:40:39;;;;;;;18.77;9.60;;;;;;;;;;5000785;28;20288;-70
2024/03/06 12:43:05;;;;;;;17.13;9.48;;;;;;;;;;5001817;28;20025;-70
2024/03/06 12:45:30;;;;;;;14.63;8.38;;;;;;;;;;5009881;28;20026;-70
2024/03/06 12:47:55;;;;;;;20.57;10.87;;;;;;;;;;5010892;28;20116;-70
2024/03/06 12:50:21;;;;;;;28.95;13.68;;;;;;;;;;4997348;28;20756;-70
2024/03/06 12:52:46;;;;;;;19.88;11.13;;;;;;;;;;5010307;28;20076;-70
2024/03/06 12:55:11;;;;;;;18.42;9.77;;;;;;;;;;5010698;28;20484;-70
2024/03/06 12:57:36;;;;;;;20.00;11.02;;;;;;;;;;5011212;28;20029;-70
2024/03/06 13:00:03;;;;;;;23.13;10.00;;;;;;;;;;5000527;28;20482;-70
2024/03/06 13:02:28;;;;;;;22.27;10.07;;;;;;;;;;5000688;28;20030;-71
2024/03/06 13:04:53;;;;;;;21.20;9.43;;;;;;;;;;5008703;28;20095;-70
2024/03/06 13:07:19;;;;;;;20.40;8.15;;;;;;;;;;5007556;28;20026;-71
2024/03/06 13:09:44;;;;;;;16.52;8.80;;;;;;;;;;5002850;28;20472;-70
2024/03/06 13:12:10;;;;;;;15.23;7.72;;;;;;;;;;4998163;28;20024;-70
2024/03/06 13:14:35;;;;;;;15.32;7.82;;;;;;;;;;5005039;28;20030;-71
2024/03/06 13:17:01;;;;;;;16.83;9.27;;;;;;;;;;5006410;28;20532;-70
2024/03/06 13:19:26;;;;;;;13.02;7.43;;;;;;;;;;5000371;28;20299;-70
2024/03/06 13:21:52;;;;;;;14.43;7.53;;;;;;;;;;5010204;28;20026;-70
2024/03/06 13:24:17;;;;;;;10.98;6.50;;;;;;;;;;5004686;28;20389;-70
2024/03/06 13:26:43;;;;;;;18.60;7.25;;;;;;;;;;4997189;28;20492;-70
2024/03/06 13:29:08;;;;;;;21.13;8.80;;;;;;;;;;5008378;28;20032;-71
2024/03/06 13:31:34;;;;;;;19.63;9.17;;;;;;;;;;5010573;28;20025;-70
2024/03/06 13:34:03;;;;;;;16.90;8.65;;;;;;;;;;5007354;28;20292;-70
2024/03/06 13:36:28;;;;;;;15.27;7.60;;;;;;;;;;4994973;28;20113;-70
2024/03/06 13:38:53;;;;;;;12.32;7.43;;;;;;;;;;5005944;28;20356;-70
2024/03/06 13:41:19;;;;;;;12.30;6.53;;;;;;;;;;5006237;28;20377;-70
2024/03/06 13:43:44;;;;;;;15.30;7.37;;;;;;;;;;5008263;28;20026;-70
2024/03/06 13:46:09;;;;;;;12.23;6.73;;;;;;;;;;5006231;28;20296;-70
2024/03/06 13:48:36;;;;;;;18.88;7.07;;;;;;;;;;5009765;28;20021;-70
2024/03/06 13:51:01;;;;;;;13.13;6.20;;;;;;;;;;5009821;28;20042;-71
2024/03/06 13:53:26;;;;;;;12.03;6.60;;;;;;;;;;5008423;28;20033;-70
2024/03/06 13:55:51;;;;;;;12.30;6.97;;;;;;;;;;5003742;28;20033;-70
2024/03/06 13:58:17;;;;;;;12.00;6.18;;;;;;;;;;5004716;28;20018;-70
2024/03/06 14:00:42;;;;;;;12.88;6.32;;;;;;;;;;5009921;28;20057;-70
2024/03/06 14:03:07;;;;;;;14.00;6.90;;;;;;;;;;4996666;28;20113;-71
2024/03/06 14:05:32;;;;;;;8.85;4.85;;;;;;;;;;4995800;28;20413;-70
2024/03/06 14:07:58;;;;;;;13.45;5.65;;;;;;;;;;5008009;28;20026;-70
2024/03/06 14:10:24;;;;;;;11.82;5.47;;;;;;;;;;5008363;28;20104;-70
2024/03/06 14:12:52;;;;;;;13.02;4.68;;;;;;;;;;5009773;28;20022;-70
2024/03/06 14:15:22;;;;;;;7.30;4.00;;;;;;;;;;5004942;28;20180;-70